createdAt,value
2022-12-09T00:01:50.676Z,-1.40
2022-12-09T00:04:19.714Z,-1.40
2022-12-09T00:06:50.538Z,-1.30
2022-12-09T00:09:19.542Z,-1.20
2022-12-09T00:11:48.223Z,-1.10
2022-12-09T00:14:16.595Z,-0.90
2022-12-09T00:16:46.145Z,-0.70
2022-12-09T00:19:16.422Z,-0.70
2022-12-09T00:21:45.824Z,-0.70
2022-12-09T00:24:21.956Z,-0.90
2022-12-09T00:26:52.135Z,-1.00
2022-12-09T00:29:21.580Z,-1.10
2022-12-09T00:31:52.225Z,-1.20
2022-12-09T00:34:22.512Z,-1.20
2022-12-09T00:36:51.553Z,-1.30
2022-12-09T00:39:23.251Z,-1.30
2022-12-09T00:41:52.150Z,-1.30
2022-12-09T00:44:25.643Z,-1.40
2022-12-09T00:47:17.667Z,-1.40
2022-12-09T00:49:46.583Z,-1.50
2022-12-09T00:52:15.294Z,-1.60
2022-12-09T00:54:45.825Z,-1.50
2022-12-09T00:57:14.609Z,-1.60
2022-12-09T00:59:44.563Z,-1.60
2022-12-09T01:02:14.253Z,-1.70
2022-12-09T01:04:44.616Z,-1.70
2022-12-09T01:07:13.460Z,-1.60
2022-12-09T01:09:42.440Z,-1.70
2022-12-09T01:12:12.862Z,-1.70
2022-12-09T01:14:41.463Z,-1.60
2022-12-09T01:17:10.616Z,-1.60
2022-12-09T01:19:40.872Z,-1.70
2022-12-09T01:22:09.519Z,-1.80
2022-12-09T01:24:38.518Z,-1.80
2022-12-09T01:27:06.835Z,-1.90
2022-12-09T01:29:37.244Z,-2.00
2022-12-09T01:32:05.872Z,-2.00
2022-12-09T01:34:34.427Z,-2.00
2022-12-09T01:37:03.068Z,-2.00
2022-12-09T01:39:34.483Z,-1.90
2022-12-09T01:42:03.882Z,-1.90
2022-12-09T01:44:34.484Z,-2.00
2022-12-09T01:47:04.747Z,-2.00
2022-12-09T01:49:37.965Z,-2.10
2022-12-09T01:52:11.048Z,-2.10
2022-12-09T01:54:41.890Z,-2.20
2022-12-09T01:57:12.110Z,-2.20
2022-12-09T01:59:41.266Z,-2.20
2022-12-09T02:02:15.558Z,-2.10
2022-12-09T02:04:50.279Z,-2.10
2022-12-09T02:07:20.544Z,-2.10
2022-12-09T02:09:53.519Z,-2.10
2022-12-09T02:12:29.073Z,-2.20
2022-12-09T02:15:04.747Z,-2.20
2022-12-09T02:17:40.934Z,-2.30
2022-12-09T02:20:15.660Z,-2.20
2022-12-09T02:22:47.566Z,-2.20
2022-12-09T02:25:34.762Z,-2.20
2022-12-09T02:28:25.884Z,-2.20
2022-12-09T02:31:04.355Z,-2.20
2022-12-09T02:33:44.359Z,-2.20
2022-12-09T02:36:19.635Z,-2.10
2022-12-09T02:38:51.662Z,-2.00
2022-12-09T02:41:23.253Z,-2.10
2022-12-09T02:43:59.150Z,-2.10
2022-12-09T02:46:35.454Z,-2.10
2022-12-09T02:49:04.898Z,-2.10
2022-12-09T02:51:42.450Z,-1.90
2022-12-09T02:54:15.342Z,-1.90
2022-12-09T02:56:51.317Z,-1.90
2022-12-09T02:59:19.570Z,-1.80
2022-12-09T03:01:53.064Z,-1.80
2022-12-09T03:04:24.817Z,-1.80
2022-12-09T03:07:09.795Z,-1.70
2022-12-09T03:09:41.814Z,-1.70
2022-12-09T03:12:12.269Z,-1.70
2022-12-09T03:14:43.933Z,-1.60
2022-12-09T03:17:17.546Z,-1.60
2022-12-09T03:19:49.855Z,-1.80
2022-12-09T03:22:21.829Z,-1.80
2022-12-09T03:24:55.118Z,-1.80
2022-12-09T03:27:27.315Z,-1.80
2022-12-09T03:29:58.109Z,-1.90
2022-12-09T03:32:30.505Z,-1.80
2022-12-09T03:35:04.534Z,-1.90
2022-12-09T03:37:37.055Z,-1.90
2022-12-09T03:40:14.292Z,-1.80
2022-12-09T03:42:49.269Z,-2.00
2022-12-09T03:45:20.173Z,-2.00
2022-12-09T03:47:48.775Z,-2.10
2022-12-09T03:50:17.198Z,-1.90
2022-12-09T03:52:51.245Z,-1.80
2022-12-09T03:55:27.023Z,-1.90
2022-12-09T03:57:59.377Z,-2.00
2022-12-09T04:00:28.171Z,-2.00
2022-12-09T04:02:56.552Z,-2.00
2022-12-09T04:05:24.888Z,-2.10
2022-12-09T04:07:54.843Z,-2.00
2022-12-09T04:10:23.152Z,-2.10
2022-12-09T04:12:51.501Z,-2.10
2022-12-09T04:15:19.979Z,-2.10
2022-12-09T04:17:48.431Z,-2.20
2022-12-09T04:20:17.095Z,-2.20
2022-12-09T04:22:45.619Z,-2.20
2022-12-09T04:25:15.697Z,-2.20
2022-12-09T04:27:43.864Z,-2.20
2022-12-09T04:30:14.207Z,-2.20
2022-12-09T04:32:43.249Z,-2.10
2022-12-09T04:35:11.924Z,-2.00
2022-12-09T04:37:40.402Z,-1.90
2022-12-09T04:40:10.071Z,-2.00
2022-12-09T04:42:39.873Z,-1.90
2022-12-09T04:45:09.241Z,-1.80
2022-12-09T04:47:37.698Z,-1.90
2022-12-09T04:50:08.000Z,-1.90
2022-12-09T04:52:36.752Z,-1.90
2022-12-09T04:55:05.613Z,-1.90
2022-12-09T04:57:34.074Z,-2.00
2022-12-09T05:00:04.052Z,-1.90
2022-12-09T05:02:32.674Z,-2.00
2022-12-09T05:05:02.140Z,-2.00
2022-12-09T05:07:32.197Z,-1.90
2022-12-09T05:10:00.559Z,-1.80
2022-12-09T05:12:29.127Z,-1.90
2022-12-09T05:14:59.010Z,-1.90
2022-12-09T05:17:29.764Z,-1.80
2022-12-09T05:19:58.650Z,-1.80
2022-12-09T05:22:27.731Z,-1.60
2022-12-09T05:24:56.090Z,-1.70
2022-12-09T05:27:24.499Z,-1.70
2022-12-09T05:29:53.159Z,-1.70
2022-12-09T05:32:21.648Z,-1.80
2022-12-09T05:34:52.232Z,-1.70
2022-12-09T05:37:20.741Z,-1.60
2022-12-09T05:39:49.778Z,-1.70
2022-12-09T05:42:18.355Z,-1.70
2022-12-09T05:44:46.583Z,-1.60
2022-12-09T05:47:15.028Z,-1.70
2022-12-09T05:49:43.383Z,-1.70
2022-12-09T05:52:14.493Z,-1.70
2022-12-09T05:54:43.745Z,-1.80
2022-12-09T05:57:12.280Z,-1.80
2022-12-09T05:59:40.895Z,-1.80
2022-12-09T06:02:10.372Z,-1.80
2022-12-09T06:04:39.268Z,-1.80
2022-12-09T06:07:07.920Z,-1.70
2022-12-09T06:09:37.994Z,-1.80
2022-12-09T06:12:07.235Z,-1.70
2022-12-09T06:14:35.472Z,-1.60
2022-12-09T06:17:03.824Z,-1.60
2022-12-09T06:19:32.128Z,-1.70
2022-12-09T06:22:00.779Z,-1.70
2022-12-09T06:24:29.213Z,-1.70
2022-12-09T06:26:59.057Z,-1.70
2022-12-09T06:29:27.564Z,-1.60
2022-12-09T06:31:56.207Z,-1.70
2022-12-09T06:34:24.843Z,-1.70
2022-12-09T06:36:54.240Z,-1.70
2022-12-09T06:39:22.394Z,-1.70
2022-12-09T06:41:50.890Z,-1.60
2022-12-09T06:44:23.874Z,-1.60
2022-12-09T06:46:53.027Z,-1.60
2022-12-09T06:49:21.454Z,-1.50
2022-12-09T06:51:49.907Z,-1.60
2022-12-09T06:54:18.164Z,-1.50
2022-12-09T06:57:01.957Z,-1.60
2022-12-09T06:59:32.902Z,-1.60
2022-12-09T07:02:01.772Z,-1.50
2022-12-09T07:04:30.353Z,-1.50
2022-12-09T07:06:59.354Z,-1.50
2022-12-09T07:09:28.690Z,-1.40
2022-12-09T07:12:09.303Z,-1.50
2022-12-09T07:14:39.261Z,-1.40
2022-12-09T07:17:07.864Z,-1.40
2022-12-09T07:19:37.135Z,-1.40
2022-12-09T07:22:05.561Z,-1.40
2022-12-09T07:24:34.047Z,-1.40
2022-12-09T07:27:08.095Z,-1.40
2022-12-09T07:29:39.617Z,-1.40
2022-12-09T07:32:10.860Z,-1.40
2022-12-09T07:34:40.585Z,-1.50
2022-12-09T07:37:09.233Z,-1.40
2022-12-09T07:39:37.572Z,-1.40
2022-12-09T07:42:07.152Z,-1.10
2022-12-09T07:44:35.763Z,-1.00
2022-12-09T07:47:06.163Z,-1.00
2022-12-09T07:49:34.972Z,-0.90
2022-12-09T07:52:12.780Z,-1.00
2022-12-09T07:54:41.374Z,-1.00
2022-12-09T07:57:10.092Z,-1.00
2022-12-09T07:59:45.751Z,-0.90
2022-12-09T08:02:15.319Z,-1.00
2022-12-09T08:04:43.556Z,-1.10
2022-12-09T08:07:13.677Z,-1.00
2022-12-09T08:09:42.338Z,-1.00
2022-12-09T08:12:12.706Z,-1.00
2022-12-09T08:14:41.069Z,-1.00
2022-12-09T08:17:09.705Z,-1.00
2022-12-09T08:19:40.313Z,-1.00
2022-12-09T08:22:09.490Z,-1.00
2022-12-09T08:24:38.352Z,-1.00
2022-12-09T08:27:07.623Z,-1.10
2022-12-09T08:29:36.017Z,-1.10
2022-12-09T08:32:12.048Z,-1.00
2022-12-09T08:34:42.820Z,-1.00
2022-12-09T08:37:11.596Z,-1.00
2022-12-09T08:39:39.885Z,-0.90
2022-12-09T08:42:08.574Z,-0.80
2022-12-09T08:44:40.894Z,-0.80
2022-12-09T08:47:10.729Z,-0.80
2022-12-09T08:49:54.832Z,-0.80
2022-12-09T08:52:24.098Z,-0.70
2022-12-09T08:54:52.338Z,-0.60
2022-12-09T08:57:24.896Z,-0.60
2022-12-09T09:00:00.485Z,-0.50
2022-12-09T09:02:37.355Z,-0.60
2022-12-09T09:05:09.394Z,-0.70
2022-12-09T09:07:44.852Z,-0.70
2022-12-09T09:10:14.604Z,-0.60
2022-12-09T09:12:44.773Z,-0.60
2022-12-09T09:15:15.121Z,-0.70
2022-12-09T09:17:51.245Z,-0.60
2022-12-09T09:20:31.588Z,-0.60
2022-12-09T09:23:03.319Z,-0.60
2022-12-09T09:25:32.553Z,-0.70
2022-12-09T09:28:00.980Z,-0.60
2022-12-09T09:30:29.275Z,-0.70
2022-12-09T09:32:57.607Z,-0.70
2022-12-09T09:35:30.486Z,-0.70
2022-12-09T09:37:59.395Z,-0.60
2022-12-09T09:40:30.341Z,-0.60
2022-12-09T09:43:00.071Z,-0.60
2022-12-09T09:45:28.749Z,-0.60
2022-12-09T09:48:00.134Z,-0.60
2022-12-09T09:50:38.930Z,-0.60
2022-12-09T09:53:15.498Z,-0.60
2022-12-09T09:55:48.214Z,-0.60
2022-12-09T09:58:19.936Z,-0.50
2022-12-09T10:00:56.970Z,-0.50
2022-12-09T10:03:36.326Z,-0.50
2022-12-09T10:06:16.478Z,-0.50
2022-12-09T10:08:56.367Z,-0.50
2022-12-09T10:11:30.636Z,-0.40
2022-12-09T10:14:06.257Z,-0.50
2022-12-09T10:16:43.768Z,-0.30
2022-12-09T10:19:20.955Z,-0.40
2022-12-09T10:21:55.568Z,-0.30
2022-12-09T10:24:32.902Z,-0.40
2022-12-09T10:27:11.993Z,-0.40
2022-12-09T10:29:55.094Z,-0.40
2022-12-09T10:32:27.507Z,-0.40
2022-12-09T10:34:56.448Z,-0.40
2022-12-09T10:37:30.774Z,-0.30
2022-12-09T10:40:06.273Z,-0.40
2022-12-09T10:42:57.514Z,-0.30
2022-12-09T10:45:32.174Z,-0.40
2022-12-09T10:48:33.120Z,-0.30
2022-12-09T10:51:06.586Z,-0.30
2022-12-09T10:53:38.259Z,-0.20
2022-12-09T10:56:07.888Z,-0.30
2022-12-09T10:58:36.554Z,-0.20
2022-12-09T11:01:09.691Z,-0.20
2022-12-09T11:03:41.521Z,-0.20
2022-12-09T11:06:23.218Z,-0.20
2022-12-09T11:08:56.567Z,-0.10
2022-12-09T11:11:42.082Z,-0.10
2022-12-09T11:14:24.028Z,-0.10
2022-12-09T11:16:54.763Z,-0.10
2022-12-09T11:19:35.158Z,0.00
2022-12-09T11:22:28.438Z,0.00
2022-12-09T11:25:20.210Z,0.00
2022-12-09T11:27:55.283Z,0.10
2022-12-09T11:30:27.079Z,0.10
2022-12-09T11:33:24.423Z,0.00
2022-12-09T11:35:57.374Z,0.00
2022-12-09T11:38:35.178Z,0.10
2022-12-09T11:41:35.879Z,0.20
2022-12-09T11:44:14.259Z,0.20
2022-12-09T11:46:43.007Z,0.30
2022-12-09T11:49:17.595Z,0.20
2022-12-09T11:52:16.758Z,0.20
2022-12-09T11:54:50.461Z,0.20
2022-12-09T11:57:30.497Z,0.20
2022-12-09T12:00:02.984Z,0.30
2022-12-09T12:02:48.135Z,0.30
2022-12-09T12:08:20.010Z,0.40
2022-12-09T12:10:59.330Z,0.30
2022-12-09T12:13:40.663Z,0.30
2022-12-09T12:16:21.015Z,0.30
2022-12-09T12:19:03.180Z,0.30
2022-12-09T12:21:51.008Z,0.40
2022-12-09T12:24:50.824Z,0.20
2022-12-09T12:27:44.631Z,0.20
2022-12-09T12:30:24.530Z,0.30
2022-12-09T12:33:59.623Z,0.30
2022-12-09T12:36:12.847Z,0.30
2022-12-09T12:39:15.052Z,0.30
2022-12-09T12:41:52.798Z,0.30
2022-12-09T12:44:55.698Z,0.20
2022-12-09T12:47:35.676Z,0.30
2022-12-09T12:50:24.138Z,0.30
2022-12-09T12:53:12.278Z,0.20
2022-12-09T12:55:50.563Z,0.30
2022-12-09T12:58:32.118Z,0.10
2022-12-09T13:01:09.579Z,0.10
2022-12-09T13:04:06.474Z,0.10
2022-12-09T13:06:44.519Z,0.20
2022-12-09T13:09:18.945Z,0.30
2022-12-09T13:12:03.598Z,0.20
2022-12-09T13:14:52.211Z,0.20
2022-12-09T13:17:24.870Z,0.20
2022-12-09T13:20:09.872Z,0.30
2022-12-09T13:25:43.785Z,0.30
2022-12-09T13:28:22.254Z,0.30
2022-12-09T13:30:56.959Z,0.40
2022-12-09T13:33:39.197Z,0.40
2022-12-09T13:36:18.313Z,0.40
2022-12-09T13:38:50.322Z,0.30
2022-12-09T13:41:59.307Z,0.30
2022-12-09T13:44:41.090Z,0.30
2022-12-09T13:47:27.817Z,0.20
2022-12-09T13:50:03.128Z,0.30
2022-12-09T13:53:09.165Z,0.20
2022-12-09T13:55:48.651Z,0.20
2022-12-09T13:58:42.372Z,0.20
2022-12-09T14:01:27.855Z,0.20
2022-12-09T14:04:09.488Z,0.20
2022-12-09T14:06:53.753Z,0.20
2022-12-09T14:09:34.291Z,0.20
2022-12-09T14:12:06.244Z,0.30
2022-12-09T14:14:58.978Z,0.20
2022-12-09T14:18:01.940Z,0.20
2022-12-09T14:20:36.226Z,0.20
2022-12-09T14:23:14.211Z,0.30
2022-12-09T14:26:19.802Z,0.30
2022-12-09T14:29:10.381Z,0.20
2022-12-09T14:32:02.100Z,0.20
2022-12-09T14:34:37.961Z,0.20
2022-12-09T14:37:33.757Z,0.20
2022-12-09T14:40:27.081Z,0.20
2022-12-09T14:43:03.898Z,0.20
2022-12-09T14:45:44.076Z,0.10
2022-12-09T14:48:16.797Z,0.10
2022-12-09T14:50:46.130Z,0.10
2022-12-09T14:53:23.418Z,0.20
2022-12-09T14:55:52.557Z,0.20
2022-12-09T14:58:24.897Z,0.10
2022-12-09T15:01:03.098Z,0.10
2022-12-09T15:03:46.720Z,0.10
2022-12-09T15:06:19.588Z,0.10
2022-12-09T15:08:50.966Z,0.10
2022-12-09T15:11:23.713Z,0.10
2022-12-09T15:13:54.689Z,0.10
2022-12-09T15:16:34.210Z,0.10
2022-12-09T15:19:03.278Z,0.20
2022-12-09T15:21:35.866Z,0.10
2022-12-09T15:24:06.160Z,0.10
2022-12-09T15:26:35.804Z,0.10
2022-12-09T15:29:05.905Z,0.10
2022-12-09T15:31:49.590Z,0.10
2022-12-09T15:34:26.887Z,0.10
2022-12-09T15:36:57.848Z,0.10
2022-12-09T15:39:31.782Z,0.10
2022-12-09T15:42:10.850Z,0.10
2022-12-09T15:44:46.695Z,0.00
2022-12-09T15:47:20.229Z,0.10
2022-12-09T15:49:57.763Z,0.10
2022-12-09T15:55:23.790Z,0.10
2022-12-09T15:57:56.312Z,0.10
2022-12-09T16:00:28.259Z,0.20
2022-12-09T16:03:00.593Z,0.10
2022-12-09T16:05:42.273Z,0.10
2022-12-09T16:08:14.417Z,0.10
2022-12-09T16:10:47.962Z,0.20
2022-12-09T16:13:18.517Z,0.10
2022-12-09T16:15:53.588Z,0.20
2022-12-09T16:18:26.802Z,0.10
2022-12-09T16:21:17.990Z,0.10
2022-12-09T16:23:50.694Z,0.10
2022-12-09T16:26:23.562Z,0.10
2022-12-09T16:28:57.116Z,0.00
2022-12-09T16:31:25.403Z,0.00
2022-12-09T16:33:56.052Z,0.10
2022-12-09T16:36:28.035Z,0.20
2022-12-09T16:39:33.584Z,0.10
2022-12-09T16:42:03.576Z,0.10
2022-12-09T16:44:36.884Z,0.10
2022-12-09T16:47:12.745Z,0.20
2022-12-09T16:49:46.433Z,0.10
2022-12-09T16:52:17.516Z,0.10
2022-12-09T16:54:48.343Z,0.10
2022-12-09T16:57:18.305Z,0.20
2022-12-09T16:59:48.343Z,0.20
2022-12-09T17:02:23.676Z,0.20
2022-12-09T17:04:56.411Z,0.20
2022-12-09T17:07:24.717Z,0.10
2022-12-09T17:09:53.666Z,0.10
2022-12-09T17:12:22.148Z,0.10
2022-12-09T17:14:53.854Z,0.10
2022-12-09T17:17:22.343Z,0.10
2022-12-09T17:19:50.594Z,0.20
2022-12-09T17:22:31.589Z,0.20
2022-12-09T17:24:59.881Z,0.20
2022-12-09T17:27:28.483Z,0.20
2022-12-09T17:29:57.015Z,0.20
2022-12-09T17:32:25.696Z,0.30
2022-12-09T17:34:56.285Z,0.20
2022-12-09T17:37:29.443Z,0.20
2022-12-09T17:40:06.973Z,0.20
2022-12-09T17:42:35.762Z,0.30
2022-12-09T17:45:06.302Z,0.20
2022-12-09T17:47:35.070Z,0.30
2022-12-09T17:50:03.731Z,0.30
2022-12-09T17:52:41.912Z,0.30
2022-12-09T17:55:11.363Z,0.30
2022-12-09T17:57:40.752Z,0.30
2022-12-09T18:00:10.908Z,0.30
2022-12-09T18:02:39.697Z,0.30
2022-12-09T18:05:09.168Z,0.30
2022-12-09T18:07:38.933Z,0.30
2022-12-09T18:10:08.552Z,0.30
2022-12-09T18:12:36.899Z,0.30
2022-12-09T18:15:05.541Z,0.40
2022-12-09T18:17:35.288Z,0.40
2022-12-09T18:20:03.708Z,0.30
2022-12-09T18:22:32.072Z,0.30
2022-12-09T18:25:01.934Z,0.30
2022-12-09T18:27:32.250Z,0.30
2022-12-09T18:30:00.777Z,0.30
2022-12-09T18:32:32.839Z,0.30
2022-12-09T18:35:05.127Z,0.40
2022-12-09T18:37:33.985Z,0.40
2022-12-09T18:40:05.291Z,0.40
2022-12-09T18:42:34.117Z,0.40
2022-12-09T18:45:03.407Z,0.40
2022-12-09T18:47:31.597Z,0.40
2022-12-09T18:50:00.590Z,0.30
2022-12-09T18:52:28.803Z,0.30
2022-12-09T18:54:57.173Z,0.30
2022-12-09T18:57:30.736Z,0.40
2022-12-09T18:59:59.491Z,0.30
2022-12-09T19:02:27.740Z,0.40
2022-12-09T19:04:55.932Z,0.40
2022-12-09T19:07:27.758Z,0.30
2022-12-09T19:10:00.430Z,0.30
2022-12-09T19:12:46.323Z,0.40
2022-12-09T19:15:15.816Z,0.40
2022-12-09T19:17:47.571Z,0.50
2022-12-09T19:20:17.139Z,0.50
2022-12-09T19:22:48.770Z,0.50
2022-12-09T19:25:17.248Z,0.50
2022-12-09T19:27:47.133Z,0.40
2022-12-09T19:30:17.921Z,0.40
2022-12-09T19:32:53.846Z,0.40
2022-12-09T19:35:22.402Z,0.40
2022-12-09T19:37:54.299Z,0.40
2022-12-09T19:40:25.100Z,0.30
2022-12-09T19:43:02.186Z,0.40
2022-12-09T19:45:30.475Z,0.40
2022-12-09T19:48:06.029Z,0.40
2022-12-09T19:50:38.511Z,0.40
2022-12-09T19:53:16.923Z,0.50
2022-12-09T19:55:51.245Z,0.40
2022-12-09T19:58:21.467Z,0.40
2022-12-09T20:00:50.157Z,0.50
2022-12-09T20:03:20.178Z,0.50
2022-12-09T20:05:57.575Z,0.50
2022-12-09T20:08:27.977Z,0.50
2022-12-09T20:11:14.482Z,0.50
2022-12-09T20:13:54.974Z,0.50
2022-12-09T20:16:27.533Z,0.50
2022-12-09T20:19:02.745Z,0.50
2022-12-09T20:21:40.127Z,0.50
2022-12-09T20:24:20.289Z,0.50
2022-12-09T20:26:49.322Z,0.40
2022-12-09T20:29:19.141Z,0.50
2022-12-09T20:31:51.305Z,0.50
2022-12-09T20:34:19.754Z,0.40
2022-12-09T20:36:48.980Z,0.40
2022-12-09T20:39:27.341Z,0.40
2022-12-09T20:41:59.643Z,0.40
2022-12-09T20:44:39.483Z,0.40
2022-12-09T20:47:14.136Z,0.40
2022-12-09T20:49:42.917Z,0.40
2022-12-09T20:52:13.265Z,0.40
2022-12-09T20:54:41.738Z,0.40
2022-12-09T20:57:19.006Z,0.40
2022-12-09T21:00:06.069Z,0.40
2022-12-09T21:02:59.594Z,0.50
2022-12-09T21:06:02.405Z,0.50
2022-12-09T21:12:02.844Z,0.40
2022-12-09T21:15:13.014Z,0.40
2022-12-09T21:17:52.134Z,0.40
2022-12-09T21:21:39.792Z,0.30
2022-12-09T21:24:35.075Z,0.30
2022-12-09T21:27:27.014Z,0.40
2022-12-09T21:30:57.324Z,0.40
2022-12-09T21:34:24.404Z,0.40
2022-12-09T21:37:04.388Z,0.40
2022-12-09T21:39:45.856Z,0.40
2022-12-09T21:42:20.087Z,0.40
2022-12-09T21:45:00.681Z,0.40
2022-12-09T21:47:53.467Z,0.50
2022-12-09T21:51:08.772Z,0.60
2022-12-09T21:53:40.527Z,0.60
2022-12-09T21:56:30.437Z,0.60
2022-12-09T21:59:17.688Z,0.40
2022-12-09T22:01:48.613Z,0.50
2022-12-09T22:04:22.758Z,0.80
2022-12-09T22:07:09.129Z,1.10
2022-12-09T22:09:38.848Z,1.10
2022-12-09T22:12:13.968Z,0.90
2022-12-09T22:14:58.014Z,0.80
2022-12-09T22:17:32.516Z,0.70
2022-12-09T22:23:17.848Z,0.60
2022-12-09T22:25:54.899Z,0.60
2022-12-09T22:28:32.561Z,0.50
2022-12-09T22:31:18.178Z,0.60
2022-12-09T22:34:06.393Z,0.60
2022-12-09T22:36:38.353Z,0.60
2022-12-09T22:43:18.553Z,0.50
2022-12-09T22:45:42.307Z,0.50
2022-12-09T22:48:57.081Z,0.50
2022-12-09T22:55:43.033Z,0.50
2022-12-09T22:58:31.401Z,0.50
2022-12-09T23:05:35.389Z,0.50
2022-12-09T23:08:33.296Z,0.50
2022-12-09T23:11:22.017Z,0.50
2022-12-09T23:14:19.141Z,0.50
2022-12-09T23:20:38.601Z,0.60
2022-12-09T23:26:40.824Z,0.50
2022-12-09T23:30:50.301Z,0.50
2022-12-09T23:33:06.259Z,0.50
2022-12-09T23:39:16.313Z,0.50
2022-12-09T23:52:37.700Z,0.60
2022-12-09T23:59:35.173Z,0.50
